boobgoddess.com alexa rank chart, boobgoddess.com alexa rank daily changes

boobgoddess.com alexa rank chart, boobgoddess.com alexa rank daily changes

boobgoddess.com
Actual rank:
83 254

RANK HISTORY

Date Rank Diff
2017/01/20 83 254 +563
2017/01/19 82 691 +2 343
2017/01/18 80 348 +1 514
2017/01/17 78 834 -707
2017/01/16 79 541 -1 332
2017/01/15 80 873 +180
2017/01/14 80 693 +785
2017/01/13 79 908 +1 200
2017/01/12 78 708 +947
2017/01/11 77 761 -548
2017/01/10 78 309 +2 552
2017/01/09 75 757 -623
2017/01/08 76 380 -629
2017/01/07 77 009 +454
2017/01/06 76 555 +444
2017/01/05 76 111 +73
2017/01/04 76 038 -1 338
2017/01/03 77 376 -2 212
2017/01/02 79 588 +1 621
2017/01/01 77 967 -414
2016/12/31 78 381 +72
2016/12/30 78 309 +1 018
2016/12/29 77 291 +2 427
2016/12/28 74 864 -589
2016/12/27 75 453 -244
2016/12/26 75 697 -539
2016/12/25 76 236 +977
2016/12/24 75 259 -1 282
2016/12/23 76 541 -141
2016/12/22 76 682 +705
2016/12/21 75 977 -739
2016/12/20 76 716 -239
2016/12/19 76 955 -1 084
2016/12/18 78 039 -1 334
2016/12/17 79 373 -10
2016/12/16 79 383 +203
2016/12/15 79 180 +365
2016/12/14 78 815 -631
2016/12/13 79 446 -198
2016/12/12 79 644 -1 193
2016/12/11 80 837 +562
2016/12/10 80 275 -1 995
2016/12/09 82 270 +1 050
2016/12/08 81 220 +481
2016/12/07 80 739 +611
2016/12/06 80 128 -1 252
2016/12/05 81 380 +271
2016/12/04 81 109 +2 027
2016/12/02 79 082 -892
2016/12/01 79 974 +1 183
2016/11/30 78 791 -506
2016/11/29 79 297 -1 383
2016/11/28 80 680 -630
2016/11/27 81 310 -338
2016/11/26 81 648 +2 081
2016/11/25 79 567 -591
2016/11/24 80 158 +2 542
2016/11/23 77 616

WIDGET FOR YOUR SITE

DOMAINS WITH THE NEAREST RANK

Domain Rank
dokuwiki.org 83 249
gov.cl 83 250
wildapricot.com 83 251
everbridge.net 83 252
keyupgrade247safesystems.space 83 253
boobgoddess.com 83 254
onlain-filmi.net 83 255
entgroup.cn 83 256
cuecaporno.com 83 257
pergame.vip 83 258
aaiedu.hr 83 259

DOMAINS WITH THE NEAREST RANK BY TLD .com

Domain Rank
mxtads.com 83 239
peoplexs.com 83 244
thestatesman.com 83 245
myactivesg.com 83 247
wildapricot.com 83 251
boobgoddess.com 83 254
cuecaporno.com 83 257
hotgirlsvids.com 83 260
mosalsl.com 83 264
marcuardheritage.com 83 265
northropgrumman.com 83 267